createdAt,value
2024-03-08T00:00:24.518Z,13.25
2024-03-08T00:01:31.376Z,12.89
2024-03-08T00:02:38.538Z,12.58
2024-03-08T00:03:45.512Z,12.21
2024-03-08T00:04:52.424Z,11.97
2024-03-08T00:05:59.397Z,11.82
2024-03-08T00:07:06.248Z,11.69
2024-03-08T00:08:13.114Z,11.69
2024-03-08T00:09:19.988Z,11.55
2024-03-08T00:10:28.371Z,11.53
2024-03-08T00:11:35.535Z,11.50
2024-03-08T00:12:42.443Z,11.50
2024-03-08T00:13:49.308Z,11.50
2024-03-08T00:14:56.217Z,11.52
2024-03-08T00:16:03.159Z,11.59
2024-03-08T00:17:10.079Z,11.70
2024-03-08T00:18:17.059Z,11.89
2024-03-08T00:19:23.936Z,11.92
2024-03-08T00:20:30.903Z,12.17
2024-03-08T00:21:37.802Z,12.93
2024-03-08T00:22:44.674Z,13.29
2024-03-08T00:23:51.589Z,12.80
2024-03-08T00:24:58.450Z,12.25
2024-03-08T00:26:05.366Z,11.95
2024-03-08T00:27:12.268Z,11.89
2024-03-08T00:28:19.128Z,11.79
2024-03-08T00:29:26.073Z,11.76
2024-03-08T00:30:32.915Z,11.70
2024-03-08T00:31:39.848Z,11.72
2024-03-08T00:32:46.776Z,11.72
2024-03-08T00:33:53.905Z,11.65
2024-03-08T00:35:00.854Z,11.59
2024-03-08T00:36:07.760Z,11.53
2024-03-08T00:37:14.626Z,11.49
2024-03-08T00:38:21.523Z,11.49
2024-03-08T00:39:28.376Z,11.48
2024-03-08T00:40:35.253Z,11.40
2024-03-08T00:41:42.155Z,11.40
2024-03-08T00:42:49.019Z,11.40
2024-03-08T00:43:55.956Z,11.41
2024-03-08T00:45:02.991Z,11.41
2024-03-08T00:46:10.005Z,11.49
2024-03-08T00:47:16.902Z,11.47
2024-03-08T00:48:23.837Z,11.43
2024-03-08T00:49:30.734Z,11.41
2024-03-08T00:50:37.657Z,11.45
2024-03-08T00:51:44.557Z,11.49
2024-03-08T00:52:51.434Z,11.51
2024-03-08T00:53:58.364Z,11.51
2024-03-08T00:55:05.269Z,11.49
2024-03-08T00:56:12.129Z,11.54
2024-03-08T00:57:19.011Z,11.63
2024-03-08T00:58:25.857Z,12.07
2024-03-08T00:59:32.757Z,12.58
2024-03-08T01:00:39.794Z,13.47
2024-03-08T01:01:46.772Z,14.26
2024-03-08T01:02:53.709Z,14.82
2024-03-08T01:04:00.630Z,15.10
2024-03-08T01:05:07.482Z,14.83
2024-03-08T01:06:14.437Z,14.69
2024-03-08T01:07:21.301Z,15.15
2024-03-08T01:08:28.264Z,14.50
2024-03-08T01:09:35.116Z,14.32
2024-03-08T01:10:42.034Z,14.00
2024-03-08T01:11:48.946Z,13.42
2024-03-08T01:12:55.867Z,12.99
2024-03-08T01:14:02.757Z,12.81
2024-03-08T01:15:09.893Z,12.57
2024-03-08T01:16:17.112Z,12.31
2024-03-08T01:17:24.119Z,12.12
2024-03-08T01:18:31.133Z,11.99
2024-03-08T01:19:38.136Z,11.90
2024-03-08T01:20:45.130Z,11.88
2024-03-08T01:21:52.067Z,11.82
2024-03-08T01:22:59.009Z,11.79
2024-03-08T01:24:06.019Z,11.80
2024-03-08T01:25:12.941Z,11.79
2024-03-08T01:26:19.785Z,11.79
2024-03-08T01:27:26.676Z,11.77
2024-03-08T01:28:33.517Z,11.70
2024-03-08T01:29:40.393Z,11.69
2024-03-08T01:30:47.265Z,11.69
2024-03-08T01:31:54.150Z,11.69
2024-03-08T01:33:01.064Z,11.69
2024-03-08T01:34:07.999Z,11.69
2024-03-08T01:35:14.846Z,11.69
2024-03-08T01:36:21.702Z,11.69
2024-03-08T01:37:28.623Z,11.69
2024-03-08T01:38:35.489Z,11.74
2024-03-08T01:39:42.458Z,11.79
2024-03-08T01:40:49.295Z,11.80
2024-03-08T01:41:56.239Z,11.81
2024-03-08T01:43:03.168Z,11.89
2024-03-08T01:44:10.012Z,11.88
2024-03-08T01:45:16.959Z,11.82
2024-03-08T01:46:23.866Z,11.88
2024-03-08T01:47:30.883Z,11.88
2024-03-08T01:48:37.972Z,11.84
2024-03-08T01:49:44.941Z,11.88
2024-03-08T01:50:51.845Z,11.89
2024-03-08T01:51:58.700Z,11.90
2024-03-08T01:53:05.583Z,11.99
2024-03-08T01:54:12.590Z,12.16
2024-03-08T01:55:19.451Z,12.44
2024-03-08T01:56:26.646Z,12.81
2024-03-08T01:57:33.623Z,12.93
2024-03-08T01:58:40.469Z,13.14
2024-03-08T01:59:47.356Z,13.30
2024-03-08T02:00:54.202Z,13.54
2024-03-08T02:02:01.097Z,13.76
2024-03-08T02:03:08.040Z,13.84
2024-03-08T02:04:14.941Z,13.98
2024-03-08T02:05:21.810Z,14.18
2024-03-08T02:06:28.710Z,14.06
2024-03-08T02:07:35.579Z,13.84
2024-03-08T02:08:42.499Z,13.74
2024-03-08T02:09:49.447Z,13.90
2024-03-08T02:10:56.314Z,13.52
2024-03-08T02:12:03.190Z,13.50
2024-03-08T02:13:10.103Z,13.66
2024-03-08T02:14:16.960Z,13.78
2024-03-08T02:15:23.804Z,13.64
2024-03-08T02:16:30.669Z,13.23
2024-03-08T02:17:37.649Z,12.89
2024-03-08T02:18:44.708Z,12.59
2024-03-08T02:19:51.664Z,12.44
2024-03-08T02:20:58.550Z,12.29
2024-03-08T02:22:05.823Z,12.15
2024-03-08T02:23:12.897Z,12.07
2024-03-08T02:24:19.807Z,11.98
2024-03-08T02:25:26.669Z,11.96
2024-03-08T02:26:33.567Z,11.88
2024-03-08T02:27:40.420Z,11.88
2024-03-08T02:28:47.270Z,11.79
2024-03-08T02:29:54.154Z,11.79
2024-03-08T02:31:01.104Z,11.78
2024-03-08T02:32:08.014Z,11.79
2024-03-08T02:33:14.891Z,11.79
2024-03-08T02:34:22.088Z,11.79
2024-03-08T02:35:28.988Z,11.79
2024-03-08T02:36:35.851Z,11.79
2024-03-08T02:37:42.703Z,11.79
2024-03-08T02:38:49.652Z,11.81
2024-03-08T02:39:56.637Z,11.89
2024-03-08T02:41:03.544Z,11.93
2024-03-08T02:42:10.508Z,12.08
2024-03-08T02:43:17.463Z,12.24
2024-03-08T02:44:24.324Z,12.61
2024-03-08T02:45:31.176Z,12.78
2024-03-08T02:46:38.066Z,12.96
2024-03-08T02:47:45.003Z,13.10
2024-03-08T02:48:51.931Z,13.10
2024-03-08T02:49:58.874Z,13.21
2024-03-08T02:51:05.752Z,13.36
2024-03-08T02:52:12.654Z,13.40
2024-03-08T02:53:19.488Z,13.19
2024-03-08T02:54:26.372Z,12.84
2024-03-08T02:55:33.247Z,12.53
2024-03-08T02:56:40.154Z,12.27
2024-03-08T02:57:47.013Z,12.03
2024-03-08T02:58:53.964Z,11.90
2024-03-08T03:00:00.958Z,11.84
2024-03-08T03:01:07.965Z,11.79
2024-03-08T03:02:14.830Z,11.79
2024-03-08T03:03:21.750Z,11.72
2024-03-08T03:04:28.610Z,11.71
2024-03-08T03:05:35.567Z,11.70
2024-03-08T03:06:42.461Z,11.76
2024-03-08T03:07:49.302Z,11.83
2024-03-08T03:08:56.293Z,12.06
2024-03-08T03:10:03.119Z,12.20
2024-03-08T03:11:10.028Z,13.04
2024-03-08T03:12:16.920Z,13.96
2024-03-08T03:13:23.802Z,14.78
2024-03-08T03:14:30.728Z,15.23
2024-03-08T03:15:37.713Z,15.28
2024-03-08T03:16:44.761Z,15.37
2024-03-08T03:17:51.696Z,15.34
2024-03-08T03:18:58.522Z,15.54
2024-03-08T03:20:05.426Z,15.03
2024-03-08T03:21:12.405Z,14.40
2024-03-08T03:22:19.332Z,13.90
2024-03-08T03:23:26.180Z,13.39
2024-03-08T03:24:33.069Z,12.94
2024-03-08T03:25:40.305Z,12.70
2024-03-08T03:26:47.326Z,12.54
2024-03-08T03:27:54.241Z,12.36
2024-03-08T03:29:01.083Z,12.22
2024-03-08T03:30:08.002Z,12.10
2024-03-08T03:31:14.935Z,12.06
2024-03-08T03:32:21.864Z,11.99
2024-03-08T03:33:28.804Z,11.91
2024-03-08T03:34:35.632Z,11.88
2024-03-08T03:35:42.585Z,11.86
2024-03-08T03:36:49.561Z,11.87
2024-03-08T03:37:56.408Z,11.84
2024-03-08T03:39:03.286Z,11.79
2024-03-08T03:40:10.166Z,11.78
2024-03-08T03:41:17.023Z,11.77
2024-03-08T03:42:23.939Z,11.73
2024-03-08T03:43:30.811Z,11.71
2024-03-08T03:44:37.741Z,11.72
2024-03-08T03:45:44.618Z,11.78
2024-03-08T03:46:51.471Z,11.78
2024-03-08T03:47:58.395Z,11.79
2024-03-08T03:49:05.283Z,11.79
2024-03-08T03:50:12.122Z,11.79
2024-03-08T03:51:19.016Z,11.78
2024-03-08T03:52:25.867Z,11.79
2024-03-08T03:53:32.797Z,11.79
2024-03-08T03:54:39.670Z,11.79
2024-03-08T03:55:46.516Z,11.88
2024-03-08T03:56:53.429Z,11.88
2024-03-08T03:58:00.715Z,11.88
2024-03-08T03:59:07.741Z,11.94
2024-03-08T04:00:14.633Z,11.89
2024-03-08T04:01:21.576Z,11.95
2024-03-08T04:02:28.444Z,11.99
2024-03-08T04:03:35.270Z,11.99
2024-03-08T04:04:42.188Z,12.08
2024-03-08T04:05:49.134Z,12.16
2024-03-08T04:06:56.039Z,12.21
2024-03-08T04:08:02.950Z,12.42
2024-03-08T04:09:09.893Z,12.60
2024-03-08T04:10:16.846Z,12.70
2024-03-08T04:11:23.689Z,12.83
2024-03-08T04:12:30.581Z,13.20
2024-03-08T04:13:37.491Z,13.40
2024-03-08T04:14:44.391Z,13.70
2024-03-08T04:15:51.269Z,13.86
2024-03-08T04:16:58.150Z,14.13
2024-03-08T04:18:05.098Z,14.32
2024-03-08T04:19:12.025Z,14.44
2024-03-08T04:20:19.091Z,14.34
2024-03-08T04:21:26.024Z,14.20
2024-03-08T04:22:32.836Z,14.23
2024-03-08T04:23:39.715Z,14.20
2024-03-08T04:24:46.576Z,14.16
2024-03-08T04:25:53.462Z,14.21
2024-03-08T04:27:00.553Z,14.26
2024-03-08T04:28:07.493Z,14.28
2024-03-08T04:29:14.339Z,13.94
2024-03-08T04:30:21.250Z,13.39
2024-03-08T04:31:28.065Z,12.82
2024-03-08T04:32:35.032Z,12.47
2024-03-08T04:33:42.028Z,12.16
2024-03-08T04:34:48.879Z,12.02
2024-03-08T04:35:55.836Z,11.89
2024-03-08T04:37:02.698Z,11.81
2024-03-08T04:38:09.592Z,11.80
2024-03-08T04:39:16.542Z,11.81
2024-03-08T04:40:23.499Z,11.87
2024-03-08T04:41:30.397Z,12.06
2024-03-08T04:42:37.226Z,12.09
2024-03-08T04:43:44.129Z,12.15
2024-03-08T04:44:51.023Z,12.26
2024-03-08T04:45:57.878Z,12.24
2024-03-08T04:47:04.742Z,12.23
2024-03-08T04:48:11.729Z,12.62
2024-03-08T04:49:18.718Z,14.02
2024-03-08T04:50:25.955Z,12.52
2024-03-08T04:51:32.838Z,13.60
2024-03-08T04:52:39.734Z,13.64
2024-03-08T04:53:46.587Z,12.99
2024-03-08T04:54:53.478Z,13.43
2024-03-08T04:56:00.374Z,13.29
2024-03-08T04:57:09.419Z,13.48
2024-03-08T04:58:16.835Z,13.69
2024-03-08T04:59:23.738Z,14.50
2024-03-08T05:00:30.685Z,15.35
2024-03-08T05:01:37.598Z,16.97
2024-03-08T05:02:44.523Z,17.51
2024-03-08T05:03:51.398Z,17.77
2024-03-08T05:04:58.296Z,17.90
2024-03-08T05:06:05.155Z,17.94
2024-03-08T05:07:12.079Z,17.97
2024-03-08T05:08:18.947Z,18.28
2024-03-08T05:09:25.842Z,18.91
2024-03-08T05:10:32.722Z,19.54
2024-03-08T05:11:39.596Z,19.92
2024-03-08T05:12:46.406Z,20.08
2024-03-08T05:13:53.275Z,20.15
2024-03-08T05:15:00.221Z,20.17
2024-03-08T05:16:07.105Z,20.21
2024-03-08T05:17:13.963Z,20.21
2024-03-08T05:18:20.907Z,20.21
2024-03-08T05:19:29.212Z,20.23
2024-03-08T05:20:37.243Z,20.23
2024-03-08T05:21:44.100Z,20.24
2024-03-08T05:22:50.983Z,20.29
2024-03-08T05:23:57.884Z,20.23
2024-03-08T05:25:04.760Z,20.34
2024-03-08T05:26:11.646Z,20.31
2024-03-08T05:27:18.639Z,20.22
2024-03-08T05:28:25.535Z,20.17
2024-03-08T05:29:32.457Z,19.73
2024-03-08T05:30:39.341Z,18.42
2024-03-08T05:31:46.263Z,18.14
2024-03-08T05:32:53.226Z,20.04
2024-03-08T05:34:00.209Z,22.29
2024-03-08T05:35:07.106Z,24.15
2024-03-08T05:36:13.987Z,25.32
2024-03-08T05:37:20.861Z,26.19
2024-03-08T05:38:27.756Z,26.49
2024-03-08T05:39:34.642Z,25.31
2024-03-08T05:40:41.501Z,23.84
2024-03-08T05:41:48.580Z,22.91
2024-03-08T05:42:55.681Z,22.36
2024-03-08T05:44:02.560Z,21.58
2024-03-08T05:45:09.498Z,21.24
2024-03-08T05:46:16.320Z,21.00
2024-03-08T05:47:23.257Z,20.88
2024-03-08T05:48:30.193Z,20.79
2024-03-08T05:49:37.134Z,20.60
2024-03-08T05:50:43.996Z,20.48
2024-03-08T05:51:50.866Z,20.32
2024-03-08T05:52:57.792Z,20.20
2024-03-08T05:54:04.741Z,20.07
2024-03-08T05:55:11.673Z,19.96
2024-03-08T05:56:18.535Z,19.95
2024-03-08T05:57:25.428Z,19.89
2024-03-08T05:58:32.323Z,19.87
2024-03-08T05:59:39.280Z,19.87
2024-03-08T06:00:46.165Z,19.90
2024-03-08T06:01:53.024Z,19.95
2024-03-08T06:02:59.926Z,19.95
2024-03-08T06:04:06.849Z,20.07
2024-03-08T06:05:13.755Z,20.18
2024-03-08T06:06:20.700Z,20.28
2024-03-08T06:07:27.533Z,20.28
2024-03-08T06:08:34.427Z,20.26
2024-03-08T06:09:41.326Z,20.24
2024-03-08T06:10:48.303Z,20.18
2024-03-08T06:11:55.751Z,20.08
2024-03-08T06:13:02.878Z,20.08
2024-03-08T06:14:09.756Z,20.08
2024-03-08T06:15:16.784Z,20.04
2024-03-08T06:16:23.822Z,19.99
2024-03-08T06:17:30.729Z,20.02
2024-03-08T06:18:37.807Z,20.04
2024-03-08T06:19:44.703Z,20.03
2024-03-08T06:20:53.714Z,20.05
2024-03-08T06:22:01.682Z,20.19
2024-03-08T06:23:08.536Z,20.42
2024-03-08T06:24:15.446Z,20.54
2024-03-08T06:25:22.378Z,20.62
2024-03-08T06:26:30.713Z,20.53
2024-03-08T06:27:38.246Z,20.62
2024-03-08T06:28:45.173Z,20.37
2024-03-08T06:29:52.131Z,20.56
2024-03-08T06:30:58.948Z,20.26
2024-03-08T06:32:05.895Z,20.06
2024-03-08T06:33:12.851Z,19.25
2024-03-08T06:34:19.739Z,18.62
2024-03-08T06:35:26.576Z,18.24
2024-03-08T06:36:33.452Z,17.99
2024-03-08T06:37:40.398Z,17.81
2024-03-08T06:38:47.312Z,18.16
2024-03-08T06:39:54.274Z,18.63
2024-03-08T06:41:01.219Z,18.94
2024-03-08T06:42:08.211Z,18.89
2024-03-08T06:43:15.076Z,18.88
2024-03-08T06:44:22.044Z,18.84
2024-03-08T06:45:28.854Z,18.77
2024-03-08T06:46:35.776Z,18.71
2024-03-08T06:47:42.668Z,18.52
2024-03-08T06:48:49.945Z,18.45
2024-03-08T06:49:56.918Z,18.28
2024-03-08T06:51:03.776Z,18.21
2024-03-08T06:52:10.622Z,18.16
2024-03-08T06:53:19.599Z,18.08
2024-03-08T06:54:28.070Z,17.82
2024-03-08T06:55:34.959Z,17.95
2024-03-08T06:56:41.828Z,17.94
2024-03-08T06:57:48.722Z,17.39
2024-03-08T06:58:55.608Z,16.79
2024-03-08T07:00:02.639Z,16.49
2024-03-08T07:01:09.786Z,16.57
2024-03-08T07:02:16.621Z,16.78
2024-03-08T07:03:23.571Z,17.47
2024-03-08T07:04:30.557Z,18.36
2024-03-08T07:05:37.435Z,18.29
2024-03-08T07:06:44.316Z,18.47
2024-03-08T07:07:51.163Z,18.52
2024-03-08T07:08:58.100Z,18.02
2024-03-08T07:10:04.947Z,17.56
2024-03-08T07:11:11.937Z,17.48
2024-03-08T07:12:18.821Z,17.43
2024-03-08T07:13:25.721Z,17.30
2024-03-08T07:14:32.680Z,16.94
2024-03-08T07:15:39.566Z,16.65
2024-03-08T07:16:46.424Z,16.52
2024-03-08T07:17:53.371Z,16.44
2024-03-08T07:19:00.500Z,16.37
2024-03-08T07:20:07.426Z,16.28
2024-03-08T07:21:14.278Z,16.19
2024-03-08T07:22:21.259Z,16.10
2024-03-08T07:23:28.149Z,16.09
2024-03-08T07:24:35.002Z,16.10
2024-03-08T07:25:41.848Z,15.99
2024-03-08T07:26:48.693Z,16.06
2024-03-08T07:27:55.608Z,16.04
2024-03-08T07:29:02.496Z,15.91
2024-03-08T07:30:09.428Z,15.88
2024-03-08T07:31:16.300Z,15.88
2024-03-08T07:32:23.140Z,15.88
2024-03-08T07:33:30.110Z,15.88
2024-03-08T07:34:37.000Z,15.87
2024-03-08T07:35:43.885Z,15.85
2024-03-08T07:36:50.768Z,15.88
2024-03-08T07:37:57.604Z,15.94
2024-03-08T07:39:05.523Z,16.05
2024-03-08T07:40:14.161Z,16.08
2024-03-08T07:41:21.017Z,16.11
2024-03-08T07:42:27.854Z,16.18
2024-03-08T07:43:34.733Z,16.25
2024-03-08T07:44:41.581Z,16.31
2024-03-08T07:45:48.489Z,16.37
2024-03-08T07:46:58.152Z,16.38
2024-03-08T07:48:05.421Z,16.31
2024-03-08T07:49:12.421Z,16.28
2024-03-08T07:50:19.293Z,16.25
2024-03-08T07:51:26.261Z,16.29
2024-03-08T07:52:33.112Z,16.40
2024-03-08T07:53:39.952Z,16.48
2024-03-08T07:54:46.885Z,16.58
2024-03-08T07:55:53.858Z,16.69
2024-03-08T07:57:00.835Z,16.84
2024-03-08T07:58:07.793Z,16.94
2024-03-08T07:59:14.623Z,17.01
2024-03-08T08:00:21.510Z,17.07
2024-03-08T08:01:28.495Z,17.14
2024-03-08T08:02:37.841Z,17.13
2024-03-08T08:03:45.992Z,16.99
2024-03-08T08:04:52.928Z,16.86
2024-03-08T08:05:59.759Z,16.75
2024-03-08T08:07:06.645Z,16.67
2024-03-08T08:08:13.549Z,16.64
2024-03-08T08:09:20.368Z,16.59
2024-03-08T08:10:27.226Z,16.58
2024-03-08T08:11:34.217Z,16.58
2024-03-08T08:12:41.129Z,16.57
2024-03-08T08:13:48.116Z,16.57
2024-03-08T08:14:55.009Z,16.56
2024-03-08T08:16:01.919Z,16.54
2024-03-08T08:17:08.744Z,16.55
2024-03-08T08:18:15.645Z,16.54
2024-03-08T08:19:22.569Z,16.56
2024-03-08T08:20:29.432Z,16.60
2024-03-08T08:21:36.328Z,16.65
2024-03-08T08:22:43.270Z,16.66
2024-03-08T08:23:50.136Z,16.71
2024-03-08T08:24:57.043Z,16.79
2024-03-08T08:26:03.960Z,16.90
2024-03-08T08:27:10.806Z,17.04
2024-03-08T08:28:17.731Z,17.16
2024-03-08T08:29:24.686Z,17.18
2024-03-08T08:30:31.558Z,17.37
2024-03-08T08:31:38.435Z,17.55
2024-03-08T08:32:45.336Z,17.65
2024-03-08T08:33:52.248Z,17.71
2024-03-08T08:34:59.112Z,17.74
2024-03-08T08:36:06.027Z,17.74
2024-03-08T08:37:12.901Z,17.74
2024-03-08T08:38:19.760Z,17.74
2024-03-08T08:39:26.612Z,17.69
2024-03-08T08:40:33.575Z,17.67
2024-03-08T08:41:40.463Z,17.73
2024-03-08T08:42:50.035Z,17.76
2024-03-08T08:44:03.715Z,17.75
2024-03-08T08:45:15.102Z,17.75
2024-03-08T08:46:21.387Z,17.79
2024-03-08T08:47:28.524Z,17.77
2024-03-08T08:48:35.403Z,17.73
2024-03-08T08:49:42.252Z,17.71
2024-03-08T08:50:49.140Z,17.63
2024-03-08T08:51:59.020Z,17.69
2024-03-08T08:53:06.174Z,17.65
2024-03-08T08:54:14.614Z,17.57
2024-03-08T08:55:22.942Z,17.55
2024-03-08T08:56:29.890Z,17.53
2024-03-08T08:57:37.047Z,17.44
2024-03-08T08:58:44.077Z,17.44
2024-03-08T08:59:50.928Z,17.43
2024-03-08T09:00:57.807Z,17.38
2024-03-08T09:02:04.771Z,17.42
2024-03-08T09:03:11.759Z,17.44
2024-03-08T09:04:18.695Z,17.44
2024-03-08T09:05:25.587Z,17.41
2024-03-08T09:06:32.436Z,17.42
2024-03-08T09:07:39.386Z,17.45
2024-03-08T09:08:46.335Z,17.45
2024-03-08T09:09:53.258Z,17.45
2024-03-08T09:11:00.210Z,17.36
2024-03-08T09:12:07.200Z,17.35
2024-03-08T09:13:18.647Z,17.35
2024-03-08T09:14:25.842Z,17.28
2024-03-08T09:15:32.787Z,17.26
2024-03-08T09:16:39.690Z,17.25
2024-03-08T09:17:46.582Z,17.25
2024-03-08T09:18:53.425Z,17.25
2024-03-08T09:20:00.341Z,17.25
2024-03-08T09:21:07.199Z,17.24
2024-03-08T09:22:14.027Z,17.17
2024-03-08T09:23:20.913Z,17.16
2024-03-08T09:24:27.701Z,17.15
2024-03-08T09:25:34.586Z,17.08
2024-03-08T09:26:41.396Z,17.05
2024-03-08T09:27:48.305Z,17.10
2024-03-08T09:28:55.178Z,17.07
2024-03-08T09:30:02.006Z,17.01
2024-03-08T09:31:08.920Z,16.97
2024-03-08T09:32:15.812Z,16.89
2024-03-08T09:33:22.648Z,16.85
2024-03-08T09:34:37.053Z,16.85
2024-03-08T09:35:41.185Z,16.93
2024-03-08T09:36:48.300Z,16.84
2024-03-08T09:37:55.190Z,16.78
2024-03-08T09:39:02.027Z,16.95
2024-03-08T09:40:08.826Z,17.05
2024-03-08T09:41:15.705Z,17.07
2024-03-08T09:42:22.520Z,16.96
2024-03-08T09:43:29.408Z,16.84
2024-03-08T09:44:36.254Z,16.96
2024-03-08T09:45:43.152Z,17.15
2024-03-08T09:46:50.058Z,17.18
2024-03-08T09:47:56.960Z,17.53
2024-03-08T09:49:03.885Z,17.61
2024-03-08T09:50:10.718Z,17.63
2024-03-08T09:51:17.577Z,17.67
2024-03-08T09:52:24.475Z,17.56
2024-03-08T09:53:31.373Z,17.40
2024-03-08T09:54:38.226Z,17.20
2024-03-08T09:55:45.081Z,16.83
2024-03-08T09:56:51.970Z,16.57
2024-03-08T09:57:58.788Z,16.39
2024-03-08T09:59:05.731Z,16.33
2024-03-08T10:00:12.566Z,16.22
2024-03-08T10:01:19.493Z,16.16
2024-03-08T10:02:26.492Z,16.06
2024-03-08T10:03:33.399Z,15.95
2024-03-08T10:04:40.301Z,15.85
2024-03-08T10:05:47.136Z,15.81
2024-03-08T10:06:54.019Z,15.79
2024-03-08T10:08:00.889Z,15.76
2024-03-08T10:09:07.772Z,15.74
2024-03-08T10:10:14.707Z,15.68
2024-03-08T10:11:21.652Z,15.77
2024-03-08T10:12:28.560Z,15.89
2024-03-08T10:13:35.449Z,16.00
2024-03-08T10:14:42.279Z,16.08
2024-03-08T10:15:49.205Z,16.08
2024-03-08T10:16:56.233Z,16.17
2024-03-08T10:18:03.218Z,16.19
2024-03-08T10:19:10.014Z,16.18
2024-03-08T10:20:16.916Z,16.18
2024-03-08T10:21:23.846Z,16.30
2024-03-08T10:22:30.752Z,16.66
2024-03-08T10:23:37.686Z,16.63
2024-03-08T10:24:44.576Z,16.58
2024-03-08T10:25:51.513Z,16.43
2024-03-08T10:26:58.423Z,15.93
2024-03-08T10:28:05.244Z,15.80
2024-03-08T10:29:12.144Z,15.80
2024-03-08T10:30:18.967Z,15.95
2024-03-08T10:31:25.872Z,15.91
2024-03-08T10:32:32.782Z,15.77
2024-03-08T10:33:39.619Z,15.45
2024-03-08T10:34:46.544Z,15.16
2024-03-08T10:35:53.390Z,15.01
2024-03-08T10:37:00.260Z,14.92
2024-03-08T10:38:07.172Z,14.92
2024-03-08T10:39:14.109Z,14.84
2024-03-08T10:40:21.200Z,14.81
2024-03-08T10:41:28.125Z,14.76
2024-03-08T10:42:38.180Z,14.79
2024-03-08T10:43:46.022Z,14.80
2024-03-08T10:44:52.930Z,14.78
2024-03-08T10:45:59.808Z,14.84
2024-03-08T10:47:07.029Z,14.84
2024-03-08T10:48:14.050Z,14.86
2024-03-08T10:49:20.908Z,14.89
2024-03-08T10:50:27.764Z,14.93
2024-03-08T10:51:34.612Z,15.01
2024-03-08T10:52:41.620Z,15.23
2024-03-08T10:53:48.503Z,15.24
2024-03-08T10:54:55.413Z,15.27
2024-03-08T10:56:02.326Z,15.22
2024-03-08T10:57:09.165Z,15.27
2024-03-08T10:58:16.051Z,15.30
2024-03-08T10:59:22.896Z,15.25
2024-03-08T11:00:29.787Z,15.20
2024-03-08T11:01:36.772Z,15.29
2024-03-08T11:02:43.655Z,15.30
2024-03-08T11:03:50.633Z,15.30
2024-03-08T11:04:57.515Z,15.35
2024-03-08T11:06:04.592Z,15.45
2024-03-08T11:07:11.411Z,15.42
2024-03-08T11:08:18.304Z,15.37
2024-03-08T11:09:25.198Z,15.59
2024-03-08T11:10:32.142Z,15.77
2024-03-08T11:11:39.122Z,16.01
2024-03-08T11:12:45.969Z,15.76
2024-03-08T11:13:52.878Z,15.32
2024-03-08T11:14:59.709Z,15.13
2024-03-08T11:16:06.586Z,15.05
2024-03-08T11:17:14.850Z,15.30
2024-03-08T11:18:22.902Z,15.77
2024-03-08T11:19:29.835Z,15.88
2024-03-08T11:20:36.784Z,15.94
2024-03-08T11:21:43.688Z,15.89
2024-03-08T11:22:50.663Z,15.77
2024-03-08T11:23:57.482Z,15.44
2024-03-08T11:25:04.376Z,15.16
2024-03-08T11:26:11.248Z,14.97
2024-03-08T11:27:18.107Z,14.62
2024-03-08T11:28:25.006Z,14.31
2024-03-08T11:29:31.893Z,14.13
2024-03-08T11:30:38.745Z,13.90
2024-03-08T11:31:45.675Z,13.75
2024-03-08T11:32:52.613Z,13.64
2024-03-08T11:33:59.492Z,13.52
2024-03-08T11:35:06.410Z,13.47
2024-03-08T11:36:13.262Z,13.37
2024-03-08T11:37:20.196Z,13.34
2024-03-08T11:38:27.129Z,13.25
2024-03-08T11:39:33.994Z,13.30
2024-03-08T11:40:40.868Z,13.34
2024-03-08T11:41:47.811Z,13.34
2024-03-08T11:42:54.644Z,13.34
2024-03-08T11:44:01.541Z,13.35
2024-03-08T11:45:08.391Z,13.45
2024-03-08T11:46:15.329Z,13.48
2024-03-08T11:47:22.318Z,13.36
2024-03-08T11:48:29.132Z,13.17
2024-03-08T11:49:36.109Z,13.12
2024-03-08T11:50:42.959Z,13.04
2024-03-08T11:51:49.826Z,13.04
2024-03-08T11:52:56.808Z,13.18
2024-03-08T11:54:03.747Z,13.15
2024-03-08T11:55:10.619Z,13.23
2024-03-08T11:56:17.569Z,13.21
2024-03-08T11:57:24.372Z,13.43
2024-03-08T11:58:31.254Z,13.72
2024-03-08T11:59:38.110Z,14.14
2024-03-08T12:00:44.999Z,14.32
2024-03-08T12:01:51.933Z,14.64
2024-03-08T12:02:58.854Z,14.84
2024-03-08T12:04:05.699Z,15.43
2024-03-08T12:05:12.566Z,16.32
2024-03-08T12:06:19.415Z,16.70
2024-03-08T12:07:26.370Z,17.04
2024-03-08T12:08:33.180Z,17.24
2024-03-08T12:09:40.060Z,17.38
2024-03-08T12:10:46.980Z,17.51
2024-03-08T12:11:53.905Z,16.61
2024-03-08T12:13:00.895Z,16.13
2024-03-08T12:14:07.854Z,16.21
2024-03-08T12:15:14.767Z,15.86
2024-03-08T12:16:21.673Z,15.26
2024-03-08T12:17:28.492Z,15.00
2024-03-08T12:18:35.388Z,14.92
2024-03-08T12:19:42.268Z,14.71
2024-03-08T12:20:49.131Z,14.56
2024-03-08T12:21:55.971Z,14.38
2024-03-08T12:23:02.877Z,14.26
2024-03-08T12:24:10.113Z,14.13
2024-03-08T12:25:17.309Z,14.04
2024-03-08T12:26:24.199Z,14.03
2024-03-08T12:27:31.059Z,14.03
2024-03-08T12:28:37.896Z,14.01
2024-03-08T12:29:44.812Z,13.95
2024-03-08T12:30:51.664Z,13.98
2024-03-08T12:31:58.600Z,14.04
2024-03-08T12:33:05.704Z,14.03
2024-03-08T12:34:12.654Z,14.05
2024-03-08T12:35:19.618Z,14.03
2024-03-08T12:36:26.570Z,14.04
2024-03-08T12:37:33.463Z,13.96
2024-03-08T12:38:40.450Z,13.95
2024-03-08T12:39:47.584Z,14.04
2024-03-08T12:40:54.599Z,14.03
2024-03-08T12:42:01.661Z,13.96
2024-03-08T12:43:08.571Z,13.93
2024-03-08T12:44:15.447Z,13.94
2024-03-08T12:45:22.318Z,14.01
2024-03-08T12:46:29.252Z,13.95
2024-03-08T12:47:36.120Z,14.14
2024-03-08T12:48:42.938Z,13.92
2024-03-08T12:49:49.872Z,13.93
2024-03-08T12:50:56.696Z,13.93
2024-03-08T12:52:03.640Z,13.94
2024-03-08T12:53:10.643Z,14.03
2024-03-08T12:54:17.611Z,14.03
2024-03-08T12:55:24.572Z,14.03
2024-03-08T12:56:31.530Z,14.02
2024-03-08T12:57:38.418Z,13.94
2024-03-08T12:58:45.386Z,13.90
2024-03-08T12:59:52.215Z,14.19
2024-03-08T13:00:59.088Z,14.86
2024-03-08T13:02:05.986Z,15.19
2024-03-08T13:03:12.988Z,15.82
2024-03-08T13:04:19.866Z,16.18
2024-03-08T13:05:26.706Z,16.83
2024-03-08T13:06:33.614Z,18.83
2024-03-08T13:07:40.468Z,21.92
2024-03-08T13:08:47.369Z,22.74
2024-03-08T13:09:54.218Z,23.21
2024-03-08T13:11:01.235Z,23.56
2024-03-08T13:12:08.164Z,23.60
2024-03-08T13:13:15.111Z,23.56
2024-03-08T13:14:21.960Z,23.58
2024-03-08T13:15:28.807Z,23.81
2024-03-08T13:16:35.731Z,24.53
2024-03-08T13:17:42.620Z,25.26
2024-03-08T13:18:53.136Z,25.66
2024-03-08T13:20:01.371Z,25.81
2024-03-08T13:21:08.316Z,25.86
2024-03-08T13:22:15.295Z,25.79
2024-03-08T13:23:22.195Z,25.59
2024-03-08T13:24:29.074Z,25.36
2024-03-08T13:25:36.051Z,25.19
2024-03-08T13:26:43.159Z,25.10
2024-03-08T13:27:50.053Z,25.04
2024-03-08T13:28:56.973Z,25.01
2024-03-08T13:30:03.856Z,25.01
2024-03-08T13:31:10.718Z,24.94
2024-03-08T13:32:17.578Z,24.90
2024-03-08T13:33:24.440Z,24.81
2024-03-08T13:34:31.356Z,24.80
2024-03-08T13:35:38.212Z,24.72
2024-03-08T13:36:45.700Z,24.75
2024-03-08T13:37:52.908Z,24.75
2024-03-08T13:38:59.799Z,24.75
2024-03-08T13:40:06.670Z,24.74
2024-03-08T13:41:13.647Z,24.67
2024-03-08T13:42:20.606Z,24.64
2024-03-08T13:43:27.556Z,24.58
2024-03-08T13:44:34.447Z,24.64
2024-03-08T13:45:41.319Z,24.79
2024-03-08T13:46:49.674Z,24.81
2024-03-08T13:47:58.860Z,24.82
2024-03-08T13:49:05.712Z,24.73
2024-03-08T13:50:12.538Z,24.58
2024-03-08T13:51:19.452Z,24.45
2024-03-08T13:52:26.521Z,24.35
2024-03-08T13:53:33.536Z,24.24
2024-03-08T13:54:40.403Z,24.21
2024-03-08T13:55:47.322Z,24.14
2024-03-08T13:56:54.237Z,24.07
2024-03-08T13:58:01.124Z,24.05
2024-03-08T13:59:08.052Z,24.01
2024-03-08T14:00:14.888Z,23.93
2024-03-08T14:01:21.834Z,23.89
2024-03-08T14:02:28.679Z,23.85
2024-03-08T14:03:35.544Z,23.82
2024-03-08T14:04:42.419Z,23.81
2024-03-08T14:05:49.318Z,23.76
2024-03-08T14:06:57.318Z,23.76
2024-03-08T14:08:05.055Z,23.75
2024-03-08T14:09:11.976Z,23.75
2024-03-08T14:10:18.980Z,23.78
2024-03-08T14:11:25.964Z,23.75
2024-03-08T14:12:32.925Z,23.66
2024-03-08T14:13:39.802Z,23.66
2024-03-08T14:14:46.599Z,23.69
2024-03-08T14:15:53.543Z,23.64
2024-03-08T14:17:00.476Z,23.54
2024-03-08T14:18:07.514Z,23.69
2024-03-08T14:19:14.373Z,23.60
2024-03-08T14:20:21.252Z,23.57
2024-03-08T14:21:28.178Z,23.67
2024-03-08T14:22:35.044Z,23.66